sensor_id;sensor_type;location;lat;lon;timestamp;pressure;altitude;pressure_sealevel;temperature;humidity
73240;BME280;61452;40.054;4.110;2022-12-16T00:01:26;100310.09;;;18.55;55.32
73240;BME280;61452;40.054;4.110;2022-12-16T00:06:30;100312.59;;;18.56;55.26
73240;BME280;61452;40.054;4.110;2022-12-16T00:11:33;100307.53;;;18.53;55.30
73240;BME280;61452;40.054;4.110;2022-12-16T00:16:35;100316.34;;;18.54;55.53
73240;BME280;61452;40.054;4.110;2022-12-16T00:21:38;100316.34;;;18.54;55.46
73240;BME280;61452;40.054;4.110;2022-12-16T00:26:40;100326.88;;;18.55;55.46
73240;BME280;61452;40.054;4.110;2022-12-16T00:31:42;100325.72;;;18.58;55.62
73240;BME280;61452;40.054;4.110;2022-12-16T00:36:49;100322.41;;;18.56;55.44
73240;BME280;61452;40.054;4.110;2022-12-16T00:41:51;100331.34;;;18.55;55.56
73240;BME280;61452;40.054;4.110;2022-12-16T00:46:53;100328.78;;;18.53;55.49
73240;BME280;61452;40.054;4.110;2022-12-16T00:51:55;100322.63;;;18.53;55.68
73240;BME280;61452;40.054;4.110;2022-12-16T00:56:57;100325.28;;;18.53;55.69
73240;BME280;61452;40.054;4.110;2022-12-16T01:02:00;100327.94;;;18.53;55.64
73240;BME280;61452;40.054;4.110;2022-12-16T01:07:02;100334.22;;;18.52;55.51
73240;BME280;61452;40.054;4.110;2022-12-16T01:12:05;100330.88;;;18.50;55.46
73240;BME280;61452;40.054;4.110;2022-12-16T01:17:07;100343.03;;;18.52;55.27
73240;BME280;61452;40.054;4.110;2022-12-16T01:22:10;100352.69;;;18.53;55.13
73240;BME280;61452;40.054;4.110;2022-12-16T01:27:13;100351.84;;;18.53;55.38
73240;BME280;61452;40.054;4.110;2022-12-16T01:32:16;100350.16;;;18.52;55.37
73240;BME280;61452;40.054;4.110;2022-12-16T01:37:19;100359.69;;;18.54;55.16
73240;BME280;61452;40.054;4.110;2022-12-16T01:42:21;100369.47;;;18.54;55.48
73240;BME280;61452;40.054;4.110;2022-12-16T01:47:31;100363.44;;;18.52;55.30
73240;BME280;61452;40.054;4.110;2022-12-16T01:52:37;100360.78;;;18.52;55.38
73240;BME280;61452;40.054;4.110;2022-12-16T01:58:04;100379.53;;;18.50;55.34
73240;BME280;61452;40.054;4.110;2022-12-16T02:03:08;100390.28;;;18.49;55.29
73240;BME280;61452;40.054;4.110;2022-12-16T02:08:13;100387.50;;;18.50;55.16
73240;BME280;61452;40.054;4.110;2022-12-16T02:34:43;100404.28;;;18.51;55.17
73240;BME280;61452;40.054;4.110;2022-12-16T02:39:57;100410.28;;;18.53;55.17
73240;BME280;61452;40.054;4.110;2022-12-16T02:45:03;100407.91;;;18.50;55.26
73240;BME280;61452;40.054;4.110;2022-12-16T02:50:21;100410.69;;;18.48;55.22
73240;BME280;61452;40.054;4.110;2022-12-16T02:55:31;100412.38;;;18.49;55.18
73240;BME280;61452;40.054;4.110;2022-12-16T03:06:08;100422.16;;;18.49;54.88
73240;BME280;61452;40.054;4.110;2022-12-16T03:11:12;100415.88;;;18.50;55.05
73240;BME280;61452;40.054;4.110;2022-12-16T03:16:17;100417.56;;;18.51;54.92
73240;BME280;61452;40.054;4.110;2022-12-16T03:21:24;100410.69;;;18.48;54.82
73240;BME280;61452;40.054;4.110;2022-12-16T03:26:33;100407.19;;;18.48;55.06
73240;BME280;61452;40.054;4.110;2022-12-16T03:32:04;100397.66;;;18.45;55.07
73240;BME280;61452;40.054;4.110;2022-12-16T03:37:12;100396.97;;;18.43;55.09
73240;BME280;61452;40.054;4.110;2022-12-16T03:42:15;100402.00;;;18.46;55.11
73240;BME280;61452;40.054;4.110;2022-12-16T03:47:17;100397.66;;;18.45;55.20
73240;BME280;61452;40.054;4.110;2022-12-16T03:52:24;100402.84;;;18.47;55.05
73240;BME280;61452;40.054;4.110;2022-12-16T03:57:26;100396.56;;;18.48;54.97
73240;BME280;61452;40.054;4.110;2022-12-16T04:02:28;100407.06;;;18.49;55.11
73240;BME280;61452;40.054;4.110;2022-12-16T04:07:30;100404.66;;;18.46;55.18
73240;BME280;61452;40.054;4.110;2022-12-16T04:12:33;100415.44;;;18.45;55.08
73240;BME280;61452;40.054;4.110;2022-12-16T04:17:54;100417.94;;;18.46;55.02
73240;BME280;61452;40.054;4.110;2022-12-16T04:23:15;100421.56;;;18.45;55.14
73240;BME280;61452;40.054;4.110;2022-12-16T04:28:36;100423.25;;;18.46;55.09
73240;BME280;61452;40.054;4.110;2022-12-16T04:33:39;100435.69;;;18.46;55.24
73240;BME280;61452;40.054;4.110;2022-12-16T04:39:00;100440.88;;;18.47;55.10
73240;BME280;61452;40.054;4.110;2022-12-16T04:44:21;100441.28;;;18.43;55.28
73240;BME280;61452;40.054;4.110;2022-12-16T04:49:41;100446.47;;;18.44;55.18
73240;BME280;61452;40.054;4.110;2022-12-16T04:55:03;100445.47;;;18.45;55.08
73240;BME280;61452;40.054;4.110;2022-12-16T05:00:24;100446.31;;;18.46;55.12
73240;BME280;61452;40.054;4.110;2022-12-16T05:05:45;100457.78;;;18.46;55.16
73240;BME280;61452;40.054;4.110;2022-12-16T05:11:06;100465.91;;;18.45;55.17
73240;BME280;61452;40.054;4.110;2022-12-16T05:16:26;100457.22;;;18.43;55.18
73240;BME280;61452;40.054;4.110;2022-12-16T05:21:47;100466.97;;;18.42;55.47
73240;BME280;61452;40.054;4.110;2022-12-16T05:27:07;100460.00;;;18.41;55.02
73240;BME280;61452;40.054;4.110;2022-12-16T05:32:28;100446.41;;;18.35;54.96
73240;BME280;61452;40.054;4.110;2022-12-16T05:37:49;100462.78;;;18.40;54.99
73240;BME280;61452;40.054;4.110;2022-12-16T05:43:09;100466.16;;;18.42;54.88
73240;BME280;61452;40.054;4.110;2022-12-16T05:48:30;100472.19;;;18.44;54.78
73240;BME280;61452;40.054;4.110;2022-12-16T05:53:51;100464.34;;;18.42;55.04
73240;BME280;61452;40.054;4.110;2022-12-16T05:59:12;100471.44;;;18.42;54.97
73240;BME280;61452;40.054;4.110;2022-12-16T06:04:32;100480.38;;;18.41;54.90
73240;BME280;61452;40.054;4.110;2022-12-16T06:09:53;100490.16;;;18.40;55.01
73240;BME280;61452;40.054;4.110;2022-12-16T06:15:14;100490.31;;;18.39;54.85
73240;BME280;61452;40.054;4.110;2022-12-16T06:20:35;100491.84;;;18.41;54.99
73240;BME280;61452;40.054;4.110;2022-12-16T06:25:56;100482.91;;;18.42;54.85
73240;BME280;61452;40.054;4.110;2022-12-16T06:31:17;100498.13;;;18.40;54.87
73240;BME280;61452;40.054;4.110;2022-12-16T06:36:38;100517.69;;;18.39;54.95
73240;BME280;61452;40.054;4.110;2022-12-16T06:41:59;100509.72;;;18.39;54.88
73240;BME280;61452;40.054;4.110;2022-12-16T06:47:19;100514.06;;;18.40;54.76
73240;BME280;61452;40.054;4.110;2022-12-16T06:52:42;100513.94;;;18.42;54.69
73240;BME280;61452;40.054;4.110;2022-12-16T06:58:02;100520.34;;;18.39;54.65
73240;BME280;61452;40.054;4.110;2022-12-16T07:03:23;100532.94;;;18.37;54.50
73240;BME280;61452;40.054;4.110;2022-12-16T07:08:44;100532.94;;;18.37;54.70
73240;BME280;61452;40.054;4.110;2022-12-16T07:14:05;100553.22;;;18.38;54.86
73240;BME280;61452;40.054;4.110;2022-12-16T07:19:26;100554.06;;;18.39;54.77
73240;BME280;61452;40.054;4.110;2022-12-16T07:24:47;100559.50;;;18.37;54.75
73240;BME280;61452;40.054;4.110;2022-12-16T07:30:08;100566.72;;;18.35;54.81
73240;BME280;61452;40.054;4.110;2022-12-16T07:35:28;100573.00;;;18.34;54.75
73240;BME280;61452;40.054;4.110;2022-12-16T07:40:49;100585.44;;;18.34;54.59
73240;BME280;61452;40.054;4.110;2022-12-16T07:46:09;100586.44;;;18.33;54.57
73240;BME280;61452;40.054;4.110;2022-12-16T07:51:30;100601.38;;;18.34;54.62
73240;BME280;61452;40.054;4.110;2022-12-16T07:56:51;100601.53;;;18.32;54.40
73240;BME280;61452;40.054;4.110;2022-12-16T08:02:12;100608.38;;;18.35;54.24
73240;BME280;61452;40.054;4.110;2022-12-16T08:07:33;100616.34;;;18.35;54.34
73240;BME280;61452;40.054;4.110;2022-12-16T08:13:01;100615.66;;;18.33;54.41
73240;BME280;61452;40.054;4.110;2022-12-16T08:18:26;100619.28;;;18.32;54.65
73240;BME280;61452;40.054;4.110;2022-12-16T08:23:48;100633.50;;;18.31;54.34
73240;BME280;61452;40.054;4.110;2022-12-16T08:29:10;100636.16;;;18.31;54.42
73240;BME280;61452;40.054;4.110;2022-12-16T08:34:46;100637.00;;;18.31;54.36
73240;BME280;61452;40.054;4.110;2022-12-16T08:40:07;100645.66;;;18.33;54.45
73240;BME280;61452;40.054;4.110;2022-12-16T08:45:37;100649.31;;;18.32;54.52
73240;BME280;61452;40.054;4.110;2022-12-16T08:51:05;100664.53;;;18.30;54.79
73240;BME280;61452;40.054;4.110;2022-12-16T08:56:26;100674.19;;;18.31;54.91
73240;BME280;61452;40.054;4.110;2022-12-16T09:01:47;100694.59;;;18.31;55.05
73240;BME280;61452;40.054;4.110;2022-12-16T09:07:09;100702.56;;;18.31;55.04
73240;BME280;61452;40.054;4.110;2022-12-16T09:12:30;100713.06;;;18.32;54.92
73240;BME280;61452;40.054;4.110;2022-12-16T09:17:54;100711.25;;;18.33;55.01
73240;BME280;61452;40.054;4.110;2022-12-16T09:23:15;100727.19;;;18.33;55.21
73240;BME280;61452;40.054;4.110;2022-12-16T09:28:36;100737.91;;;18.31;55.53
73240;BME280;61452;40.054;4.110;2022-12-16T09:33:57;100756.38;;;18.33;56.08
73240;BME280;61452;40.054;4.110;2022-12-16T09:39:17;100761.69;;;18.33;56.21
73240;BME280;61452;40.054;4.110;2022-12-16T09:50:23;100782.22;;;18.31;56.46
73240;BME280;61452;40.054;4.110;2022-12-16T09:55:49;100778.44;;;18.33;56.63
73240;BME280;61452;40.054;4.110;2022-12-16T10:01:11;100781.84;;;18.35;56.87
73240;BME280;61452;40.054;4.110;2022-12-16T10:06:41;100788.09;;;18.34;57.18
73240;BME280;61452;40.054;4.110;2022-12-16T10:12:25;100789.22;;;18.32;57.40
73240;BME280;61452;40.054;4.110;2022-12-16T10:17:49;100790.91;;;18.33;57.40
73240;BME280;61452;40.054;4.110;2022-12-16T10:23:40;100793.69;;;18.31;57.47
73240;BME280;61452;40.054;4.110;2022-12-16T10:29:13;100777.63;;;18.33;57.58
73240;BME280;61452;40.054;4.110;2022-12-16T10:34:37;100787.41;;;18.32;57.78
73240;BME280;61452;40.054;4.110;2022-12-16T10:40:01;100787.41;;;18.32;57.89
73240;BME280;61452;40.054;4.110;2022-12-16T10:45:43;100789.91;;;18.34;57.65
73240;BME280;61452;40.054;4.110;2022-12-16T10:51:12;100791.88;;;18.32;57.73
73240;BME280;61452;40.054;4.110;2022-12-16T10:56:57;100791.03;;;18.31;57.87
73240;BME280;61452;40.054;4.110;2022-12-16T11:02:24;100791.88;;;18.32;57.94
73240;BME280;61452;40.054;4.110;2022-12-16T11:13:18;100792.72;;;18.32;57.97
73240;BME280;61452;40.054;4.110;2022-12-16T11:18:48;100795.38;;;18.32;57.88
73240;BME280;61452;40.054;4.110;2022-12-16T11:24:18;100797.03;;;18.33;57.82
73240;BME280;61452;40.054;4.110;2022-12-16T11:29:56;100815.78;;;18.32;57.96
73240;BME280;61452;40.054;4.110;2022-12-16T11:35:26;100815.41;;;18.36;58.14
73240;BME280;61452;40.054;4.110;2022-12-16T11:40:49;100809.22;;;18.36;58.01
73240;BME280;61452;40.054;4.110;2022-12-16T11:46:13;100812.84;;;18.35;58.01
73240;BME280;61452;40.054;4.110;2022-12-16T11:51:36;100808.66;;;18.32;58.29
73240;BME280;61452;40.054;4.110;2022-12-16T11:57:22;100812.00;;;18.34;58.21
73240;BME280;61452;40.054;4.110;2022-12-16T12:03:02;100803.81;;;18.37;58.10
73240;BME280;61452;40.054;4.110;2022-12-16T12:14:17;100808.28;;;18.37;58.26
73240;BME280;61452;40.054;4.110;2022-12-16T12:19:56;100822.63;;;18.34;58.32
73240;BME280;61452;40.054;4.110;2022-12-16T12:25:59;100832.28;;;18.35;58.43
73240;BME280;61452;40.054;4.110;2022-12-16T12:37:02;100836.53;;;18.38;58.66
73240;BME280;61452;40.054;4.110;2022-12-16T12:42:36;100826.59;;;18.40;58.83
73240;BME280;61452;40.054;4.110;2022-12-16T13:05:11;100830.38;;;18.37;58.62
73240;BME280;61452;40.054;4.110;2022-12-16T13:11:10;100831.44;;;18.35;58.79
73240;BME280;61452;40.054;4.110;2022-12-16T13:22:28;100829.63;;;18.35;58.52
73240;BME280;61452;40.054;4.110;2022-12-16T13:27:54;100826.03;;;18.36;58.63
73240;BME280;61452;40.054;4.110;2022-12-16T13:33:27;100822.50;;;18.36;58.42
73240;BME280;61452;40.054;4.110;2022-12-16T13:38:50;100836.53;;;18.38;58.39
73240;BME280;61452;40.054;4.110;2022-12-16T13:55:54;100850.50;;;18.40;58.28
73240;BME280;61452;40.054;4.110;2022-12-16T14:01:26;100861.28;;;18.38;58.68
73240;BME280;61452;40.054;4.110;2022-12-16T14:06:49;100862.13;;;18.39;58.50
73240;BME280;61452;40.054;4.110;2022-12-16T14:12:37;100864.03;;;18.37;58.26
73240;BME280;61452;40.054;4.110;2022-12-16T14:18:10;100868.50;;;18.36;58.11
73240;BME280;61452;40.054;4.110;2022-12-16T14:23:41;100879.97;;;18.37;58.03
73240;BME280;61452;40.054;4.110;2022-12-16T14:34:42;100887.84;;;18.38;57.93
73240;BME280;61452;40.054;4.110;2022-12-16T14:40:17;100892.16;;;18.39;57.72
73240;BME280;61452;40.054;4.110;2022-12-16T14:45:38;100891.34;;;18.39;57.97
73240;BME280;61452;40.054;4.110;2022-12-16T14:51:35;100904.72;;;18.37;57.98
73240;BME280;61452;40.054;4.110;2022-12-16T14:56:56;100910.88;;;18.38;57.79
73240;BME280;61452;40.054;4.110;2022-12-16T15:02:27;100916.19;;;18.38;57.62
73240;BME280;61452;40.054;4.110;2022-12-16T15:07:50;100913.53;;;18.38;57.55
73240;BME280;61452;40.054;4.110;2022-12-16T15:13:16;100928.63;;;18.37;57.77
73240;BME280;61452;40.054;4.110;2022-12-16T15:18:41;100930.31;;;18.38;57.56
73240;BME280;61452;40.054;4.110;2022-12-16T15:24:09;100939.72;;;18.42;57.40
73240;BME280;61452;40.054;4.110;2022-12-16T15:29:39;100936.47;;;18.39;57.60
73240;BME280;61452;40.054;4.110;2022-12-16T15:35:00;100953.22;;;18.39;57.58
73240;BME280;61452;40.054;4.110;2022-12-16T15:40:26;100961.09;;;18.41;57.45
73240;BME280;61452;40.054;4.110;2022-12-16T15:45:48;100949.75;;;18.39;57.46
73240;BME280;61452;40.054;4.110;2022-12-16T15:51:38;100967.50;;;18.38;57.34
73240;BME280;61452;40.054;4.110;2022-12-16T15:57:01;100973.66;;;18.39;57.48
73240;BME280;61452;40.054;4.110;2022-12-16T16:02:28;100973.66;;;18.39;57.28
73240;BME280;61452;40.054;4.110;2022-12-16T16:07:49;100984.28;;;18.39;57.29
73240;BME280;61452;40.054;4.110;2022-12-16T16:13:10;100989.47;;;18.40;57.01
73240;BME280;61452;40.054;4.110;2022-12-16T16:18:31;100991.03;;;18.43;56.89
73240;BME280;61452;40.054;4.110;2022-12-16T16:23:51;101003.59;;;18.41;57.00
73240;BME280;61452;40.054;4.110;2022-12-16T16:29:12;101005.53;;;18.39;56.94
73240;BME280;61452;40.054;4.110;2022-12-16T16:34:33;101011.66;;;18.39;56.68
73240;BME280;61452;40.054;4.110;2022-12-16T16:39:54;101020.63;;;18.38;56.78
73240;BME280;61452;40.054;4.110;2022-12-16T16:45:15;101017.13;;;18.38;56.56
73240;BME280;61452;40.054;4.110;2022-12-16T16:50:35;101021.47;;;18.39;56.53
73240;BME280;61452;40.054;4.110;2022-12-16T16:55:56;101036.56;;;18.38;56.57
73240;BME280;61452;40.054;4.110;2022-12-16T17:01:21;101023.28;;;18.38;56.19
73240;BME280;61452;40.054;4.110;2022-12-16T17:06:41;101041.63;;;18.41;56.11
73240;BME280;61452;40.054;4.110;2022-12-16T17:12:13;101040.78;;;18.41;55.99
73240;BME280;61452;40.054;4.110;2022-12-16T17:17:37;101055.16;;;18.38;56.18
73240;BME280;61452;40.054;4.110;2022-12-16T17:22:57;101070.94;;;18.40;56.06
73240;BME280;61452;40.054;4.110;2022-12-16T17:28:18;101068.28;;;18.40;55.79
73240;BME280;61452;40.054;4.110;2022-12-16T17:33:39;101078.81;;;18.41;55.86
73240;BME280;61452;40.054;4.110;2022-12-16T17:39:00;101086.03;;;18.39;55.92
73240;BME280;61452;40.054;4.110;2022-12-16T17:44:21;101093.19;;;18.39;56.17
73240;BME280;61452;40.054;4.110;2022-12-16T17:49:42;101095.84;;;18.39;56.10
73240;BME280;61452;40.054;4.110;2022-12-16T17:55:03;101095.94;;;18.37;55.84
73240;BME280;61452;40.054;4.110;2022-12-16T18:00:23;101106.47;;;18.39;55.82
73240;BME280;61452;40.054;4.110;2022-12-16T18:06:01;101113.59;;;18.38;55.78
73240;BME280;61452;40.054;4.110;2022-12-16T18:11:21;101119.84;;;18.37;55.58
73240;BME280;61452;40.054;4.110;2022-12-16T18:16:42;101127.72;;;18.39;55.46
73240;BME280;61452;40.054;4.110;2022-12-16T18:22:03;101125.88;;;18.39;55.42
73240;BME280;61452;40.054;4.110;2022-12-16T18:27:23;101144.47;;;18.39;55.36
73240;BME280;61452;40.054;4.110;2022-12-16T18:32:44;101148.09;;;18.38;55.49
73240;BME280;61452;40.054;4.110;2022-12-16T18:38:05;101153.53;;;18.37;55.47
73240;BME280;61452;40.054;4.110;2022-12-16T18:43:25;101159.78;;;18.36;55.44
73240;BME280;61452;40.054;4.110;2022-12-16T18:48:46;101157.50;;;18.31;55.46
73240;BME280;61452;40.054;4.110;2022-12-16T18:54:07;101175.53;;;18.39;55.30
73240;BME280;61452;40.054;4.110;2022-12-16T18:59:28;101177.19;;;18.40;55.38
73240;BME280;61452;40.054;4.110;2022-12-16T19:04:48;101187.94;;;18.38;55.46
73240;BME280;61452;40.054;4.110;2022-12-16T19:10:09;101195.16;;;18.36;55.49
73240;BME280;61452;40.054;4.110;2022-12-16T19:15:30;101203.13;;;18.36;55.29
73240;BME280;61452;40.054;4.110;2022-12-16T19:20:55;101198.69;;;18.37;55.20
73240;BME280;61452;40.054;4.110;2022-12-16T19:26:15;101203.13;;;18.36;55.33
73240;BME280;61452;40.054;4.110;2022-12-16T19:31:44;101200.19;;;18.28;55.12
73240;BME280;61452;40.054;4.110;2022-12-16T19:37:05;101221.84;;;18.35;55.01
73240;BME280;61452;40.054;4.110;2022-12-16T19:42:25;101222.69;;;18.35;54.95
73240;BME280;61452;40.054;4.110;2022-12-16T19:47:46;101234.06;;;18.37;55.05
73240;BME280;61452;40.054;4.110;2022-12-16T19:53:14;101240.31;;;18.36;55.02
73240;BME280;61452;40.054;4.110;2022-12-16T19:58:48;101234.25;;;18.34;55.10
73240;BME280;61452;40.054;4.110;2022-12-16T20:04:10;101252.00;;;18.34;55.07
73240;BME280;61452;40.054;4.110;2022-12-16T20:09:31;101261.69;;;18.35;55.12
73240;BME280;61452;40.054;4.110;2022-12-16T20:14:52;101259.13;;;18.33;55.14
73240;BME280;61452;40.054;4.110;2022-12-16T20:20:13;101274.84;;;18.36;55.00
73240;BME280;61452;40.054;4.110;2022-12-16T20:25:38;101271.25;;;18.37;54.98
73240;BME280;61452;40.054;4.110;2022-12-16T20:31:00;101270.50;;;18.35;55.07
73240;BME280;61452;40.054;4.110;2022-12-16T20:36:21;101279.41;;;18.34;55.21
73240;BME280;61452;40.054;4.110;2022-12-16T20:41:42;101275.69;;;18.37;54.95
73240;BME280;61452;40.054;4.110;2022-12-16T20:47:20;101280.16;;;18.36;54.92
73240;BME280;61452;40.054;4.110;2022-12-16T20:52:40;101283.78;;;18.35;55.00
73240;BME280;61452;40.054;4.110;2022-12-16T20:58:01;101297.91;;;18.36;55.12
73240;BME280;61452;40.054;4.110;2022-12-16T21:03:22;101298.84;;;18.35;54.87
73240;BME280;61452;40.054;4.110;2022-12-16T21:08:43;101309.72;;;18.32;54.92
73240;BME280;61452;40.054;4.110;2022-12-16T21:14:04;101306.94;;;18.33;54.92
73240;BME280;61452;40.054;4.110;2022-12-16T21:19:27;101317.56;;;18.33;54.72
73240;BME280;61452;40.054;4.110;2022-12-16T21:24:47;101325.41;;;18.35;54.78
73240;BME280;61452;40.054;4.110;2022-12-16T21:30:09;101325.53;;;18.33;54.75
73240;BME280;61452;40.054;4.110;2022-12-16T21:35:30;101322.16;;;18.31;55.02
73240;BME280;61452;40.054;4.110;2022-12-16T21:40:52;101333.72;;;18.30;55.06
73240;BME280;61452;40.054;4.110;2022-12-16T21:46:13;101346.78;;;18.33;54.91
73240;BME280;61452;40.054;4.110;2022-12-16T21:51:34;101343.16;;;18.34;55.13
73240;BME280;61452;40.054;4.110;2022-12-16T21:56:57;101345.09;;;18.32;55.11
73240;BME280;61452;40.054;4.110;2022-12-16T22:02:17;101354.97;;;18.30;55.06
73240;BME280;61452;40.054;4.110;2022-12-16T22:07:38;101368.25;;;18.30;55.17
73240;BME280;61452;40.054;4.110;2022-12-16T22:12:59;101370.06;;;18.30;54.91
73240;BME280;61452;40.054;4.110;2022-12-16T22:18:19;101386.00;;;18.30;54.90
73240;BME280;61452;40.054;4.110;2022-12-16T22:23:40;101395.56;;;18.32;54.86
73240;BME280;61452;40.054;4.110;2022-12-16T22:29:01;101399.25;;;18.30;54.98
73240;BME280;61452;40.054;4.110;2022-12-16T22:34:22;101407.22;;;18.30;54.96
73240;BME280;61452;40.054;4.110;2022-12-16T22:39:42;101400.31;;;18.27;54.93
73240;BME280;61452;40.054;4.110;2022-12-16T22:45:03;101418.91;;;18.27;54.80
73240;BME280;61452;40.054;4.110;2022-12-16T22:50:23;101420.63;;;18.28;54.76
73240;BME280;61452;40.054;4.110;2022-12-16T22:55:54;101426.06;;;18.27;54.83
73240;BME280;61452;40.054;4.110;2022-12-16T23:01:14;101429.53;;;18.27;54.55
73240;BME280;61452;40.054;4.110;2022-12-16T23:06:35;101426.16;;;18.25;54.58
73240;BME280;61452;40.054;4.110;2022-12-16T23:11:56;101427.88;;;18.26;54.73
73240;BME280;61452;40.054;4.110;2022-12-16T23:17:17;101419.91;;;18.26;54.74
73240;BME280;61452;40.054;4.110;2022-12-16T23:22:38;101425.94;;;18.28;54.71
73240;BME280;61452;40.054;4.110;2022-12-16T23:27:58;101413.59;;;18.27;54.67
73240;BME280;61452;40.054;4.110;2022-12-16T23:33:19;101410.13;;;18.27;54.67
73240;BME280;61452;40.054;4.110;2022-12-16T23:38:40;101414.69;;;18.25;54.71
73240;BME280;61452;40.054;4.110;2022-12-16T23:44:01;101410.13;;;18.27;54.74
73240;BME280;61452;40.054;4.110;2022-12-16T23:49:22;101411.78;;;18.28;54.69
73240;BME280;61452;40.054;4.110;2022-12-16T23:54:50;101399.19;;;18.18;54.82
